sensor_id;sensor_type;location;lat;lon;timestamp;P1;durP1;ratioP1;P2;durP2;ratioP2
19113;SDS011;9689;51.052;13.772;2022-08-19T00:01:56;16.60;;;11.30;;
19113;SDS011;9689;51.052;13.772;2022-08-19T00:06:58;19.83;;;11.80;;
19113;SDS011;9689;51.052;13.772;2022-08-19T00:11:59;20.80;;;11.77;;
19113;SDS011;9689;51.052;13.772;2022-08-19T00:17:02;17.02;;;12.48;;
19113;SDS011;9689;51.052;13.772;2022-08-19T00:22:03;18.27;;;12.45;;
19113;SDS011;9689;51.052;13.772;2022-08-19T00:27:04;18.55;;;12.55;;
19113;SDS011;9689;51.052;13.772;2022-08-19T00:32:26;16.13;;;12.45;;
19113;SDS011;9689;51.052;13.772;2022-08-19T00:37:28;19.85;;;13.90;;
19113;SDS011;9689;51.052;13.772;2022-08-19T00:42:29;21.73;;;13.15;;
19113;SDS011;9689;51.052;13.772;2022-08-19T00:47:31;18.38;;;13.10;;
19113;SDS011;9689;51.052;13.772;2022-08-19T00:52:32;19.80;;;14.30;;
19113;SDS011;9689;51.052;13.772;2022-08-19T00:57:36;22.67;;;13.70;;
19113;SDS011;9689;51.052;13.772;2022-08-19T01:02:41;22.92;;;14.38;;
19113;SDS011;9689;51.052;13.772;2022-08-19T01:07:43;20.38;;;15.75;;
19113;SDS011;9689;51.052;13.772;2022-08-19T01:12:44;21.92;;;14.18;;
19113;SDS011;9689;51.052;13.772;2022-08-19T01:17:47;22.10;;;14.75;;
19113;SDS011;9689;51.052;13.772;2022-08-19T01:22:50;24.92;;;15.15;;
19113;SDS011;9689;51.052;13.772;2022-08-19T01:27:53;18.98;;;15.20;;
19113;SDS011;9689;51.052;13.772;2022-08-19T01:33:00;22.38;;;15.13;;
19113;SDS011;9689;51.052;13.772;2022-08-19T01:38:06;19.98;;;14.05;;
19113;SDS011;9689;51.052;13.772;2022-08-19T01:43:10;23.67;;;16.50;;
19113;SDS011;9689;51.052;13.772;2022-08-19T01:48:11;19.25;;;15.20;;
19113;SDS011;9689;51.052;13.772;2022-08-19T01:53:13;23.38;;;16.00;;
19113;SDS011;9689;51.052;13.772;2022-08-19T01:58:14;22.67;;;15.40;;
19113;SDS011;9689;51.052;13.772;2022-08-19T02:03:19;28.50;;;15.77;;
19113;SDS011;9689;51.052;13.772;2022-08-19T02:08:21;22.00;;;15.43;;
19113;SDS011;9689;51.052;13.772;2022-08-19T02:13:22;26.73;;;17.23;;
19113;SDS011;9689;51.052;13.772;2022-08-19T02:18:24;24.08;;;17.10;;
19113;SDS011;9689;51.052;13.772;2022-08-19T02:23:27;20.73;;;15.63;;
19113;SDS011;9689;51.052;13.772;2022-08-19T02:28:28;26.83;;;15.40;;
19113;SDS011;9689;51.052;13.772;2022-08-19T02:33:29;21.80;;;14.95;;
19113;SDS011;9689;51.052;13.772;2022-08-19T02:38:31;21.08;;;14.02;;
19113;SDS011;9689;51.052;13.772;2022-08-19T02:43:32;19.05;;;13.45;;
19113;SDS011;9689;51.052;13.772;2022-08-19T02:48:35;20.45;;;14.93;;
19113;SDS011;9689;51.052;13.772;2022-08-19T02:53:37;22.88;;;14.82;;
19113;SDS011;9689;51.052;13.772;2022-08-19T02:58:37;21.73;;;15.15;;
19113;SDS011;9689;51.052;13.772;2022-08-19T03:03:38;23.13;;;15.35;;
19113;SDS011;9689;51.052;13.772;2022-08-19T03:08:41;20.33;;;15.07;;
19113;SDS011;9689;51.052;13.772;2022-08-19T03:13:43;23.38;;;17.00;;
19113;SDS011;9689;51.052;13.772;2022-08-19T03:18:44;20.10;;;15.38;;
19113;SDS011;9689;51.052;13.772;2022-08-19T03:23:46;22.88;;;16.00;;
19113;SDS011;9689;51.052;13.772;2022-08-19T03:28:47;24.85;;;16.98;;
19113;SDS011;9689;51.052;13.772;2022-08-19T03:33:57;28.20;;;17.67;;
19113;SDS011;9689;51.052;13.772;2022-08-19T03:38:59;25.15;;;16.48;;
19113;SDS011;9689;51.052;13.772;2022-08-19T03:44:01;20.65;;;15.43;;
19113;SDS011;9689;51.052;13.772;2022-08-19T03:49:10;24.05;;;15.93;;
19113;SDS011;9689;51.052;13.772;2022-08-19T03:54:14;21.42;;;16.58;;
19113;SDS011;9689;51.052;13.772;2022-08-19T03:59:18;20.40;;;15.60;;
19113;SDS011;9689;51.052;13.772;2022-08-19T04:04:20;28.02;;;17.88;;
19113;SDS011;9689;51.052;13.772;2022-08-19T04:09:22;24.60;;;17.20;;
19113;SDS011;9689;51.052;13.772;2022-08-19T04:14:24;20.92;;;15.40;;
19113;SDS011;9689;51.052;13.772;2022-08-19T04:19:26;24.10;;;16.77;;
19113;SDS011;9689;51.052;13.772;2022-08-19T04:24:30;28.63;;;17.02;;
19113;SDS011;9689;51.052;13.772;2022-08-19T04:29:31;24.70;;;17.85;;
19113;SDS011;9689;51.052;13.772;2022-08-19T04:34:32;26.13;;;17.33;;
19113;SDS011;9689;51.052;13.772;2022-08-19T04:39:34;22.67;;;15.63;;
19113;SDS011;9689;51.052;13.772;2022-08-19T04:45:00;25.30;;;18.48;;
19113;SDS011;9689;51.052;13.772;2022-08-19T04:50:07;24.33;;;16.67;;
19113;SDS011;9689;51.052;13.772;2022-08-19T04:55:12;24.65;;;18.33;;
19113;SDS011;9689;51.052;13.772;2022-08-19T05:00:13;25.48;;;16.98;;
19113;SDS011;9689;51.052;13.772;2022-08-19T05:05:14;24.08;;;16.88;;
19113;SDS011;9689;51.052;13.772;2022-08-19T05:10:16;23.30;;;17.35;;
19113;SDS011;9689;51.052;13.772;2022-08-19T05:15:18;27.30;;;17.58;;
19113;SDS011;9689;51.052;13.772;2022-08-19T05:20:19;21.10;;;15.73;;
19113;SDS011;9689;51.052;13.772;2022-08-19T05:25:38;25.65;;;16.92;;
19113;SDS011;9689;51.052;13.772;2022-08-19T05:30:40;23.10;;;16.17;;
19113;SDS011;9689;51.052;13.772;2022-08-19T05:35:45;21.52;;;15.93;;
19113;SDS011;9689;51.052;13.772;2022-08-19T05:40:49;20.63;;;15.68;;
19113;SDS011;9689;51.052;13.772;2022-08-19T05:45:49;24.13;;;15.80;;
19113;SDS011;9689;51.052;13.772;2022-08-19T05:50:50;24.95;;;17.27;;
19113;SDS011;9689;51.052;13.772;2022-08-19T05:55:52;23.42;;;17.10;;
19113;SDS011;9689;51.052;13.772;2022-08-19T06:00:54;22.52;;;17.40;;
19113;SDS011;9689;51.052;13.772;2022-08-19T06:05:55;22.98;;;17.10;;
19113;SDS011;9689;51.052;13.772;2022-08-19T06:10:59;22.58;;;16.95;;
19113;SDS011;9689;51.052;13.772;2022-08-19T06:16:12;22.20;;;15.15;;
19113;SDS011;9689;51.052;13.772;2022-08-19T06:21:20;18.42;;;13.48;;
19113;SDS011;9689;51.052;13.772;2022-08-19T06:26:22;16.33;;;12.27;;
19113;SDS011;9689;51.052;13.772;2022-08-19T06:31:25;15.65;;;10.48;;
19113;SDS011;9689;51.052;13.772;2022-08-19T06:36:29;16.13;;;10.55;;
19113;SDS011;9689;51.052;13.772;2022-08-19T06:41:35;18.75;;;11.98;;
19113;SDS011;9689;51.052;13.772;2022-08-19T06:46:48;23.15;;;12.20;;
19113;SDS011;9689;51.052;13.772;2022-08-19T06:51:53;17.75;;;11.57;;
19113;SDS011;9689;51.052;13.772;2022-08-19T06:56:57;18.60;;;12.57;;
19113;SDS011;9689;51.052;13.772;2022-08-19T07:02:02;17.75;;;12.48;;
19113;SDS011;9689;51.052;13.772;2022-08-19T07:07:06;20.02;;;13.75;;
19113;SDS011;9689;51.052;13.772;2022-08-19T07:12:20;18.10;;;14.18;;
19113;SDS011;9689;51.052;13.772;2022-08-19T07:17:21;23.35;;;15.13;;
19113;SDS011;9689;51.052;13.772;2022-08-19T07:22:22;20.63;;;14.02;;
19113;SDS011;9689;51.052;13.772;2022-08-19T07:27:24;22.20;;;16.25;;
19113;SDS011;9689;51.052;13.772;2022-08-19T07:32:24;25.20;;;17.33;;
19113;SDS011;9689;51.052;13.772;2022-08-19T07:37:26;25.02;;;16.38;;
19113;SDS011;9689;51.052;13.772;2022-08-19T07:42:33;22.13;;;16.23;;
19113;SDS011;9689;51.052;13.772;2022-08-19T07:47:33;33.88;;;18.23;;
19113;SDS011;9689;51.052;13.772;2022-08-19T07:52:49;28.42;;;17.48;;
19113;SDS011;9689;51.052;13.772;2022-08-19T07:57:52;31.08;;;18.70;;
19113;SDS011;9689;51.052;13.772;2022-08-19T08:02:53;30.60;;;18.50;;
19113;SDS011;9689;51.052;13.772;2022-08-19T08:07:54;28.67;;;18.15;;
19113;SDS011;9689;51.052;13.772;2022-08-19T08:13:14;28.70;;;18.95;;
19113;SDS011;9689;51.052;13.772;2022-08-19T08:18:15;34.15;;;21.17;;
19113;SDS011;9689;51.052;13.772;2022-08-19T08:23:16;28.13;;;19.67;;
19113;SDS011;9689;51.052;13.772;2022-08-19T08:28:26;31.90;;;19.75;;
19113;SDS011;9689;51.052;13.772;2022-08-19T08:33:28;23.73;;;17.88;;
19113;SDS011;9689;51.052;13.772;2022-08-19T08:38:33;26.08;;;18.75;;
19113;SDS011;9689;51.052;13.772;2022-08-19T08:43:40;22.30;;;17.10;;
19113;SDS011;9689;51.052;13.772;2022-08-19T08:48:44;24.00;;;16.40;;
19113;SDS011;9689;51.052;13.772;2022-08-19T08:53:52;20.92;;;14.63;;
19113;SDS011;9689;51.052;13.772;2022-08-19T08:58:56;15.88;;;11.95;;
19113;SDS011;9689;51.052;13.772;2022-08-19T09:04:02;17.30;;;12.90;;
19113;SDS011;9689;51.052;13.772;2022-08-19T09:09:04;17.75;;;11.77;;
19113;SDS011;9689;51.052;13.772;2022-08-19T09:14:18;18.98;;;12.30;;
19113;SDS011;9689;51.052;13.772;2022-08-19T09:19:50;17.98;;;12.98;;
19113;SDS011;9689;51.052;13.772;2022-08-19T09:24:53;18.25;;;13.15;;
19113;SDS011;9689;51.052;13.772;2022-08-19T09:29:56;21.45;;;13.77;;
19113;SDS011;9689;51.052;13.772;2022-08-19T09:34:56;18.20;;;11.57;;
19113;SDS011;9689;51.052;13.772;2022-08-19T09:40:02;17.00;;;12.60;;
19113;SDS011;9689;51.052;13.772;2022-08-19T09:45:05;19.38;;;12.68;;
19113;SDS011;9689;51.052;13.772;2022-08-19T09:50:09;16.63;;;12.15;;
19113;SDS011;9689;51.052;13.772;2022-08-19T09:55:14;17.85;;;12.30;;
19113;SDS011;9689;51.052;13.772;2022-08-19T10:00:18;19.02;;;12.30;;
19113;SDS011;9689;51.052;13.772;2022-08-19T10:05:19;18.20;;;11.88;;
19113;SDS011;9689;51.052;13.772;2022-08-19T10:10:40;19.48;;;11.27;;
19113;SDS011;9689;51.052;13.772;2022-08-19T10:15:46;17.27;;;10.23;;
19113;SDS011;9689;51.052;13.772;2022-08-19T10:20:50;13.63;;;10.07;;
19113;SDS011;9689;51.052;13.772;2022-08-19T10:25:52;13.75;;;9.88;;
19113;SDS011;9689;51.052;13.772;2022-08-19T10:30:54;14.02;;;10.13;;
19113;SDS011;9689;51.052;13.772;2022-08-19T10:35:58;10.43;;;7.97;;
19113;SDS011;9689;51.052;13.772;2022-08-19T10:41:06;10.60;;;8.00;;
19113;SDS011;9689;51.052;13.772;2022-08-19T10:46:09;10.52;;;7.57;;
19113;SDS011;9689;51.052;13.772;2022-08-19T10:51:15;9.55;;;7.45;;
19113;SDS011;9689;51.052;13.772;2022-08-19T10:56:34;9.27;;;7.95;;
19113;SDS011;9689;51.052;13.772;2022-08-19T11:02:00;9.93;;;6.60;;
19113;SDS011;9689;51.052;13.772;2022-08-19T11:07:02;7.97;;;6.85;;
19113;SDS011;9689;51.052;13.772;2022-08-19T11:12:04;7.82;;;6.38;;
19113;SDS011;9689;51.052;13.772;2022-08-19T11:17:06;9.43;;;6.75;;
19113;SDS011;9689;51.052;13.772;2022-08-19T11:22:07;8.90;;;6.03;;
19113;SDS011;9689;51.052;13.772;2022-08-19T11:27:14;9.18;;;6.97;;
19113;SDS011;9689;51.052;13.772;2022-08-19T11:32:16;9.57;;;7.53;;
19113;SDS011;9689;51.052;13.772;2022-08-19T11:37:16;11.65;;;8.65;;
19113;SDS011;9689;51.052;13.772;2022-08-19T11:42:17;13.43;;;9.88;;
19113;SDS011;9689;51.052;13.772;2022-08-19T11:47:37;11.45;;;9.00;;
19113;SDS011;9689;51.052;13.772;2022-08-19T11:52:38;12.10;;;9.00;;
19113;SDS011;9689;51.052;13.772;2022-08-19T11:57:39;13.35;;;9.45;;
19113;SDS011;9689;51.052;13.772;2022-08-19T12:02:44;13.43;;;9.90;;
19113;SDS011;9689;51.052;13.772;2022-08-19T12:07:44;14.93;;;9.18;;
19113;SDS011;9689;51.052;13.772;2022-08-19T12:12:45;16.60;;;10.65;;
19113;SDS011;9689;51.052;13.772;2022-08-19T12:17:59;21.25;;;14.02;;
19113;SDS011;9689;51.052;13.772;2022-08-19T12:23:01;21.48;;;15.80;;
19113;SDS011;9689;51.052;13.772;2022-08-19T12:28:02;22.90;;;16.42;;
19113;SDS011;9689;51.052;13.772;2022-08-19T12:33:05;27.05;;;18.05;;
19113;SDS011;9689;51.052;13.772;2022-08-19T12:38:05;25.80;;;17.58;;
19113;SDS011;9689;51.052;13.772;2022-08-19T12:43:06;24.40;;;15.35;;
19113;SDS011;9689;51.052;13.772;2022-08-19T12:48:09;27.75;;;16.70;;
19113;SDS011;9689;51.052;13.772;2022-08-19T12:53:29;28.77;;;17.05;;
19113;SDS011;9689;51.052;13.772;2022-08-19T12:58:32;25.73;;;17.55;;
19113;SDS011;9689;51.052;13.772;2022-08-19T13:03:35;29.50;;;15.95;;
19113;SDS011;9689;51.052;13.772;2022-08-19T13:08:39;23.52;;;15.30;;
19113;SDS011;9689;51.052;13.772;2022-08-19T13:13:42;22.48;;;16.35;;
19113;SDS011;9689;51.052;13.772;2022-08-19T13:18:45;25.83;;;17.08;;
19113;SDS011;9689;51.052;13.772;2022-08-19T13:23:47;22.55;;;15.35;;
19113;SDS011;9689;51.052;13.772;2022-08-19T13:28:47;21.38;;;14.82;;
19113;SDS011;9689;51.052;13.772;2022-08-19T13:34:07;26.05;;;17.15;;
19113;SDS011;9689;51.052;13.772;2022-08-19T13:39:09;29.80;;;20.02;;
19113;SDS011;9689;51.052;13.772;2022-08-19T13:44:10;27.77;;;19.90;;
19113;SDS011;9689;51.052;13.772;2022-08-19T13:49:12;23.80;;;17.13;;
19113;SDS011;9689;51.052;13.772;2022-08-19T13:54:15;27.92;;;19.10;;
19113;SDS011;9689;51.052;13.772;2022-08-19T13:59:16;25.27;;;18.38;;
19113;SDS011;9689;51.052;13.772;2022-08-19T14:04:18;23.17;;;17.77;;
19113;SDS011;9689;51.052;13.772;2022-08-19T14:09:18;28.35;;;19.63;;
19113;SDS011;9689;51.052;13.772;2022-08-19T14:14:19;34.67;;;22.35;;
19113;SDS011;9689;51.052;13.772;2022-08-19T14:19:21;29.48;;;19.40;;
19113;SDS011;9689;51.052;13.772;2022-08-19T14:24:22;29.70;;;19.65;;
19113;SDS011;9689;51.052;13.772;2022-08-19T14:29:23;34.13;;;21.40;;
19113;SDS011;9689;51.052;13.772;2022-08-19T14:34:26;37.42;;;22.60;;
19113;SDS011;9689;51.052;13.772;2022-08-19T14:39:26;40.67;;;24.08;;
19113;SDS011;9689;51.052;13.772;2022-08-19T14:44:27;37.20;;;24.08;;
19113;SDS011;9689;51.052;13.772;2022-08-19T14:49:29;36.63;;;22.48;;
19113;SDS011;9689;51.052;13.772;2022-08-19T14:54:33;31.63;;;22.42;;
19113;SDS011;9689;51.052;13.772;2022-08-19T14:59:34;42.53;;;24.38;;
19113;SDS011;9689;51.052;13.772;2022-08-19T15:04:36;33.97;;;22.25;;
19113;SDS011;9689;51.052;13.772;2022-08-19T15:09:38;38.55;;;24.88;;
19113;SDS011;9689;51.052;13.772;2022-08-19T15:14:38;32.35;;;21.77;;
19113;SDS011;9689;51.052;13.772;2022-08-19T15:19:42;40.47;;;25.08;;
19113;SDS011;9689;51.052;13.772;2022-08-19T15:24:43;38.30;;;21.63;;
19113;SDS011;9689;51.052;13.772;2022-08-19T15:29:46;39.65;;;25.60;;
19113;SDS011;9689;51.052;13.772;2022-08-19T15:34:54;54.78;;;27.98;;
19113;SDS011;9689;51.052;13.772;2022-08-19T15:39:55;44.35;;;26.05;;
19113;SDS011;9689;51.052;13.772;2022-08-19T15:44:56;38.22;;;25.15;;
19113;SDS011;9689;51.052;13.772;2022-08-19T15:50:02;38.40;;;25.75;;
19113;SDS011;9689;51.052;13.772;2022-08-19T15:55:09;37.70;;;25.20;;
19113;SDS011;9689;51.052;13.772;2022-08-19T16:00:19;34.58;;;22.10;;
19113;SDS011;9689;51.052;13.772;2022-08-19T16:05:36;36.53;;;23.83;;
19113;SDS011;9689;51.052;13.772;2022-08-19T16:10:54;37.45;;;24.63;;
19113;SDS011;9689;51.052;13.772;2022-08-19T16:15:55;36.78;;;24.33;;
19113;SDS011;9689;51.052;13.772;2022-08-19T16:20:57;34.88;;;23.00;;
19113;SDS011;9689;51.052;13.772;2022-08-19T16:25:58;34.55;;;22.38;;
19113;SDS011;9689;51.052;13.772;2022-08-19T16:30:59;29.05;;;18.05;;
19113;SDS011;9689;51.052;13.772;2022-08-19T16:36:01;32.13;;;22.25;;
19113;SDS011;9689;51.052;13.772;2022-08-19T16:41:06;32.13;;;21.90;;
19113;SDS011;9689;51.052;13.772;2022-08-19T16:46:07;32.30;;;21.10;;
19113;SDS011;9689;51.052;13.772;2022-08-19T16:51:12;34.95;;;21.13;;
19113;SDS011;9689;51.052;13.772;2022-08-19T16:56:13;29.92;;;20.15;;
19113;SDS011;9689;51.052;13.772;2022-08-19T17:01:14;31.10;;;20.58;;
19113;SDS011;9689;51.052;13.772;2022-08-19T17:06:18;29.35;;;21.17;;
19113;SDS011;9689;51.052;13.772;2022-08-19T17:11:22;31.58;;;20.58;;
19113;SDS011;9689;51.052;13.772;2022-08-19T17:16:25;30.80;;;19.70;;
19113;SDS011;9689;51.052;13.772;2022-08-19T17:21:30;39.90;;;19.17;;
19113;SDS011;9689;51.052;13.772;2022-08-19T17:26:32;28.20;;;19.27;;
19113;SDS011;9689;51.052;13.772;2022-08-19T17:31:33;32.63;;;20.48;;
19113;SDS011;9689;51.052;13.772;2022-08-19T17:36:35;30.45;;;18.05;;
19113;SDS011;9689;51.052;13.772;2022-08-19T17:41:36;24.48;;;17.98;;
19113;SDS011;9689;51.052;13.772;2022-08-19T17:46:37;34.55;;;19.10;;
19113;SDS011;9689;51.052;13.772;2022-08-19T17:51:40;21.27;;;15.73;;
19113;SDS011;9689;51.052;13.772;2022-08-19T17:56:43;28.75;;;18.98;;
19113;SDS011;9689;51.052;13.772;2022-08-19T18:01:44;26.85;;;18.17;;
19113;SDS011;9689;51.052;13.772;2022-08-19T18:06:53;24.42;;;17.42;;
19113;SDS011;9689;51.052;13.772;2022-08-19T18:11:55;25.02;;;17.50;;
19113;SDS011;9689;51.052;13.772;2022-08-19T18:16:57;26.80;;;17.42;;
19113;SDS011;9689;51.052;13.772;2022-08-19T18:21:59;28.05;;;18.25;;
19113;SDS011;9689;51.052;13.772;2022-08-19T18:27:00;28.20;;;18.90;;
19113;SDS011;9689;51.052;13.772;2022-08-19T18:32:00;32.50;;;18.92;;
19113;SDS011;9689;51.052;13.772;2022-08-19T18:37:02;27.83;;;18.23;;
19113;SDS011;9689;51.052;13.772;2022-08-19T18:42:03;31.67;;;19.77;;
19113;SDS011;9689;51.052;13.772;2022-08-19T18:47:22;28.63;;;18.63;;
19113;SDS011;9689;51.052;13.772;2022-08-19T18:52:41;32.42;;;20.23;;
19113;SDS011;9689;51.052;13.772;2022-08-19T18:57:42;32.28;;;19.10;;
19113;SDS011;9689;51.052;13.772;2022-08-19T19:02:43;32.45;;;18.85;;
19113;SDS011;9689;51.052;13.772;2022-08-19T19:07:46;29.52;;;19.65;;
19113;SDS011;9689;51.052;13.772;2022-08-19T19:12:46;30.17;;;20.00;;
19113;SDS011;9689;51.052;13.772;2022-08-19T19:17:48;33.33;;;21.60;;
19113;SDS011;9689;51.052;13.772;2022-08-19T19:22:50;30.23;;;20.55;;
19113;SDS011;9689;51.052;13.772;2022-08-19T19:27:56;36.42;;;21.80;;
19113;SDS011;9689;51.052;13.772;2022-08-19T19:32:57;36.25;;;23.23;;
19113;SDS011;9689;51.052;13.772;2022-08-19T19:38:01;46.55;;;26.17;;
19113;SDS011;9689;51.052;13.772;2022-08-19T19:43:01;41.30;;;25.95;;
19113;SDS011;9689;51.052;13.772;2022-08-19T19:48:03;45.35;;;27.83;;
19113;SDS011;9689;51.052;13.772;2022-08-19T19:53:05;44.38;;;25.42;;
19113;SDS011;9689;51.052;13.772;2022-08-19T19:58:06;37.50;;;24.00;;
19113;SDS011;9689;51.052;13.772;2022-08-19T20:03:06;34.67;;;22.73;;
19113;SDS011;9689;51.052;13.772;2022-08-19T20:08:08;40.38;;;23.20;;
19113;SDS011;9689;51.052;13.772;2022-08-19T20:13:27;35.33;;;23.33;;
19113;SDS011;9689;51.052;13.772;2022-08-19T20:18:28;36.90;;;23.30;;
19113;SDS011;9689;51.052;13.772;2022-08-19T20:23:30;37.08;;;22.15;;
19113;SDS011;9689;51.052;13.772;2022-08-19T20:28:32;35.60;;;21.52;;
19113;SDS011;9689;51.052;13.772;2022-08-19T20:33:33;34.40;;;21.55;;
19113;SDS011;9689;51.052;13.772;2022-08-19T20:38:35;32.40;;;21.33;;
19113;SDS011;9689;51.052;13.772;2022-08-19T20:43:37;33.15;;;21.80;;
19113;SDS011;9689;51.052;13.772;2022-08-19T20:48:39;37.03;;;22.27;;
19113;SDS011;9689;51.052;13.772;2022-08-19T20:53:42;37.67;;;22.50;;
19113;SDS011;9689;51.052;13.772;2022-08-19T20:58:43;33.72;;;21.67;;
19113;SDS011;9689;51.052;13.772;2022-08-19T21:03:52;41.92;;;23.40;;
19113;SDS011;9689;51.052;13.772;2022-08-19T21:08:54;36.60;;;21.85;;
19113;SDS011;9689;51.052;13.772;2022-08-19T21:13:55;34.47;;;23.25;;
19113;SDS011;9689;51.052;13.772;2022-08-19T21:18:56;40.28;;;22.73;;
19113;SDS011;9689;51.052;13.772;2022-08-19T21:23:57;33.33;;;20.60;;
19113;SDS011;9689;51.052;13.772;2022-08-19T21:28:59;30.33;;;20.58;;
19113;SDS011;9689;51.052;13.772;2022-08-19T21:34:00;33.30;;;19.15;;
19113;SDS011;9689;51.052;13.772;2022-08-19T21:39:02;28.92;;;19.50;;
19113;SDS011;9689;51.052;13.772;2022-08-19T21:44:03;28.20;;;18.40;;
19113;SDS011;9689;51.052;13.772;2022-08-19T21:49:04;32.05;;;20.67;;
19113;SDS011;9689;51.052;13.772;2022-08-19T21:54:06;26.65;;;17.92;;
19113;SDS011;9689;51.052;13.772;2022-08-19T21:59:12;34.55;;;20.60;;
19113;SDS011;9689;51.052;13.772;2022-08-19T22:04:13;35.55;;;19.27;;
19113;SDS011;9689;51.052;13.772;2022-08-19T22:09:15;34.28;;;18.92;;
19113;SDS011;9689;51.052;13.772;2022-08-19T22:14:15;29.45;;;17.88;;
19113;SDS011;9689;51.052;13.772;2022-08-19T22:19:16;24.45;;;16.27;;
19113;SDS011;9689;51.052;13.772;2022-08-19T22:24:18;30.75;;;18.95;;
19113;SDS011;9689;51.052;13.772;2022-08-19T22:29:19;32.83;;;18.42;;
19113;SDS011;9689;51.052;13.772;2022-08-19T22:34:32;33.15;;;19.60;;
19113;SDS011;9689;51.052;13.772;2022-08-19T22:39:34;26.05;;;17.85;;
19113;SDS011;9689;51.052;13.772;2022-08-19T22:44:35;35.08;;;19.55;;
19113;SDS011;9689;51.052;13.772;2022-08-19T22:49:35;33.10;;;19.73;;
19113;SDS011;9689;51.052;13.772;2022-08-19T22:54:37;35.50;;;20.27;;
19113;SDS011;9689;51.052;13.772;2022-08-19T22:59:38;27.80;;;17.55;;
19113;SDS011;9689;51.052;13.772;2022-08-19T23:04:39;30.77;;;19.27;;
19113;SDS011;9689;51.052;13.772;2022-08-19T23:09:41;31.88;;;19.88;;
19113;SDS011;9689;51.052;13.772;2022-08-19T23:14:42;33.30;;;18.23;;
19113;SDS011;9689;51.052;13.772;2022-08-19T23:19:44;32.55;;;19.42;;
19113;SDS011;9689;51.052;13.772;2022-08-19T23:24:46;30.70;;;20.13;;
19113;SDS011;9689;51.052;13.772;2022-08-19T23:29:54;33.50;;;19.60;;
19113;SDS011;9689;51.052;13.772;2022-08-19T23:35:12;31.38;;;19.15;;
19113;SDS011;9689;51.052;13.772;2022-08-19T23:40:15;36.25;;;19.90;;
19113;SDS011;9689;51.052;13.772;2022-08-19T23:45:16;29.30;;;19.52;;
19113;SDS011;9689;51.052;13.772;2022-08-19T23:50:23;33.53;;;21.20;;
19113;SDS011;9689;51.052;13.772;2022-08-19T23:55:27;32.28;;;20.52;;
